Time;durP1;ratioP1;P1;durP2;ratioP2;P2;SDS_P1;SDS_P2;PMS_P1;PMS_P2;Temp;Humidity;BMP_temperature;BMP_pressure;BME280_temperature;BME280_humidity;BME280_pressure;Samples;Min_cycle;Max_cycle;Signal;HPM_P1;HPM_P2
2022/11/02 00:00:16;;;;;;;4.80;3.40;;;;;;;15.97;100.00;96908.19;5105355;28;20075;-49
2022/11/02 00:02:44;;;;;;;5.97;3.63;;;;;;;16.08;100.00;96912.31;5094929;28;20537;-45
2022/11/02 00:05:13;;;;;;;6.63;4.18;;;;;;;15.97;100.00;96908.19;5095754;28;20091;-47
2022/11/02 00:07:42;;;;;;;6.22;4.18;;;;;;;16.10;100.00;96908.50;5090862;28;20082;-45
2022/11/02 00:10:10;;;;;;;7.28;4.13;;;;;;;16.09;100.00;96906.81;5095758;28;20103;-46
2022/11/02 00:12:39;;;;;;;5.28;3.60;;;;;;;16.05;100.00;96907.34;5103429;28;20078;-45
2022/11/02 00:15:10;;;;;;;5.15;3.33;;;;;;;16.16;100.00;96906.16;5107386;28;20067;-48
2022/11/02 00:17:39;;;;;;;6.47;3.75;;;;;;;15.96;100.00;96908.31;5103857;28;20086;-43
2022/11/02 00:20:08;;;;;;;3.08;2.15;;;;;;;15.77;100.00;96914.84;5095459;28;20110;-45
2022/11/02 00:22:37;;;;;;;2.35;1.77;;;;;;;15.64;100.00;96915.28;5101924;28;20067;-47
2022/11/02 00:25:07;;;;;;;3.15;1.98;;;;;;;15.73;100.00;96911.69;5098158;28;20090;-44
2022/11/02 00:27:35;;;;;;;4.10;2.30;;;;;;;15.86;100.00;96912.00;5100843;28;20071;-43
2022/11/02 00:30:04;;;;;;;5.88;2.58;;;;;;;15.71;100.00;96912.81;5089790;28;20078;-46
2022/11/02 00:32:34;;;;;;;6.68;2.95;;;;;;;14.73;100.00;96918.72;5093822;28;20098;-49
2022/11/02 00:35:03;;;;;;;5.47;2.80;;;;;;;15.43;100.00;96921.06;5103098;28;20074;-45
2022/11/02 00:37:31;;;;;;;5.65;2.65;;;;;;;15.66;100.00;96910.69;5094446;28;20095;-50
2022/11/02 00:40:00;;;;;;;4.63;2.70;;;;;;;15.19;100.00;96928.00;5081846;28;20044;-43
2022/11/02 00:42:28;;;;;;;3.97;2.50;;;;;;;15.41;100.00;96926.53;5100911;28;20067;-44
2022/11/02 00:44:57;;;;;;;6.07;2.80;;;;;;;15.63;100.00;96921.59;5095755;28;20098;-43
2022/11/02 00:47:25;;;;;;;5.28;3.13;;;;;;;15.40;100.00;96924.06;5097818;28;20537;-48
2022/11/02 00:49:55;;;;;;;6.22;2.85;;;;;;;15.40;100.00;96927.53;5099486;28;20092;-48
2022/11/02 00:52:23;;;;;;;5.63;3.70;;;;;;;15.42;100.00;96924.72;5096835;28;20079;-45
2022/11/02 00:54:52;;;;;;;5.85;3.58;;;;;;;15.22;100.00;96928.66;5104789;28;20525;-43
2022/11/02 00:57:20;;;;;;;6.93;3.78;;;;;;;15.35;100.00;96934.34;5098897;28;20084;-48
2022/11/02 00:59:48;;;;;;;6.03;3.22;;;;;;;15.14;100.00;96925.00;5102827;28;20094;-43
2022/11/02 01:02:17;;;;;;;7.45;3.58;;;;;;;15.32;100.00;96934.69;5079985;28;20066;-47
2022/11/02 01:04:46;;;;;;;5.88;3.78;;;;;;;15.32;100.00;96926.72;5105332;28;20067;-44
2022/11/02 01:07:15;;;;;;;7.32;4.20;;;;;;;15.01;100.00;96932.59;5096481;28;20078;-45
2022/11/02 01:09:44;;;;;;;6.50;4.20;;;;;;;15.20;100.00;96927.00;5096391;28;20094;-49
2022/11/02 01:12:12;;;;;;;7.95;4.05;;;;;;;15.27;100.00;96931.66;5097600;28;20557;-43
2022/11/02 01:14:40;;;;;;;9.00;4.45;;;;;;;15.29;100.00;96927.84;5108750;28;20540;-44
2022/11/02 01:17:09;;;;;;;9.88;4.68;;;;;;;15.28;100.00;96925.34;5101983;28;20079;-47
2022/11/02 01:19:37;;;;;;;8.77;4.50;;;;;;;14.76;100.00;96926.31;5101926;28;20506;-44
2022/11/02 01:22:06;;;;;;;7.47;4.03;;;;;;;14.63;100.00;96931.28;5095567;28;20080;-48
2022/11/02 01:24:35;;;;;;;9.30;4.55;;;;;;;15.08;100.00;96927.47;5097801;28;20518;-45
2022/11/02 01:27:04;;;;;;;6.57;4.10;;;;;;;14.24;100.00;96935.13;5094272;28;20083;-49
2022/11/02 01:29:32;;;;;;;6.47;3.65;;;;;;;14.45;100.00;96931.28;5101375;28;20879;-50
2022/11/02 01:32:00;;;;;;;9.98;4.47;;;;;;;14.88;100.00;96934.84;5090575;28;20087;-44
2022/11/02 01:34:29;;;;;;;6.93;3.60;;;;;;;14.93;100.00;96935.19;5095265;28;20094;-43
2022/11/02 01:36:57;;;;;;;9.60;4.07;;;;;;;14.79;100.00;96935.81;5095228;28;20532;-46
2022/11/02 01:39:26;;;;;;;7.72;3.60;;;;;;;14.70;100.00;96934.94;5097182;28;20068;-45
2022/11/02 01:41:55;;;;;;;7.00;3.50;;;;;;;14.96;100.00;96934.88;5091970;28;20083;-44
2022/11/02 01:44:29;;;;;;;8.00;3.60;;;;;;;15.24;100.00;96937.28;5100274;28;20459;-45
2022/11/02 01:47:02;;;;;;;10.00;3.38;;;;;;;15.04;100.00;96937.59;5094787;28;20481;-46
2022/11/02 01:49:34;;;;;;;6.97;3.63;;;;;;;15.08;100.00;96943.41;5095884;28;20076;-47
2022/11/02 01:52:07;;;;;;;8.70;3.88;;;;;;;14.60;100.00;96948.34;5088654;28;20470;-45
2022/11/02 01:54:39;;;;;;;8.05;4.20;;;;;;;14.43;100.00;96939.41;5090696;28;20083;-44
2022/11/02 01:57:11;;;;;;;7.55;4.65;;;;;;;15.17;100.00;96940.63;5103905;28;20079;-49
2022/11/02 01:59:42;;;;;;;11.27;4.22;;;;;;;15.53;100.00;96931.56;5096164;28;20091;-47
2022/11/02 02:02:15;;;;;;;7.30;4.15;;;;;;;15.78;100.00;96930.59;5101373;28;20146;-47
2022/11/02 02:04:45;;;;;;;7.97;3.90;;;;;;;15.81;100.00;96932.94;5098069;28;20094;-49
2022/11/02 02:07:14;;;;;;;8.03;4.33;;;;;;;15.89;100.00;96935.59;5077646;28;20071;-44
2022/11/02 02:09:43;;;;;;;10.32;3.90;;;;;;;15.89;100.00;96930.28;5095678;28;20044;-45
2022/11/02 02:12:20;;;;;;;8.45;4.03;;;;;;;15.94;100.00;96932.44;5095813;28;20080;-47
2022/11/02 02:14:49;;;;;;;7.93;3.58;;;;;;;15.78;100.00;96925.28;5098973;28;20083;-45
2022/11/02 02:17:27;;;;;;;5.70;3.10;;;;;;;15.89;100.00;96926.78;5098888;28;20079;-48
2022/11/02 02:19:58;;;;;;;8.73;3.83;;;;;;;15.69;100.00;96934.28;5104794;28;20082;-46
2022/11/02 02:22:47;;;;;;;5.88;3.50;;;;;;;15.62;100.00;96938.53;5098062;28;20087;-45
2022/11/02 02:25:26;;;;;;;9.20;4.10;;;;;;;15.56;100.00;96947.19;5102905;28;20079;-47
2022/11/02 02:28:06;;;;;;;6.03;3.70;;;;;;;15.75;100.00;96940.75;5100934;28;20090;-48
2022/11/02 02:30:38;;;;;;;9.85;4.28;;;;;;;15.73;100.00;96940.09;5099985;28;20087;-45
2022/11/02 02:33:11;;;;;;;9.10;3.60;;;;;;;15.69;100.00;96947.56;5103418;28;20525;-47
2022/11/02 02:35:43;;;;;;;9.27;4.13;;;;;;;15.78;100.00;96943.91;5104332;28;20071;-45
2022/11/02 02:38:14;;;;;;;8.82;3.95;;;;;;;15.76;100.00;96937.06;5102432;28;20079;-46
2022/11/02 02:40:48;;;;;;;9.32;4.47;;;;;;;15.49;100.00;96954.16;5096936;28;20083;-45
2022/11/02 02:43:20;;;;;;;7.55;3.95;;;;;;;15.60;100.00;96957.31;5099561;28;20074;-49
2022/11/02 02:45:53;;;;;;;8.55;4.50;;;;;;;15.69;100.00;96950.22;5096710;28;20146;-42
2022/11/02 02:48:23;;;;;;;8.10;4.10;;;;;;;15.53;100.00;96960.81;5081723;28;20079;-43
2022/11/02 02:50:54;;;;;;;8.52;4.82;;;;;;;15.64;100.00;96950.66;5099648;28;20079;-43
2022/11/02 02:53:29;;;;;;;10.30;5.00;;;;;;;15.71;100.00;96950.88;5099154;28;20467;-47
2022/11/02 02:55:59;;;;;;;7.22;4.70;;;;;;;15.64;100.00;96956.00;5102137;28;20078;-45
2022/11/02 02:58:32;;;;;;;9.25;4.82;;;;;;;15.78;100.00;96948.41;5102157;28;20469;-49
2022/11/02 03:01:00;;;;;;;9.80;3.95;;;;;;;15.83;100.00;96951.41;5101949;28;20688;-45
2022/11/02 03:03:30;;;;;;;10.75;4.97;;;;;;;15.66;100.00;96948.72;5100839;28;20510;-48
2022/11/02 03:06:04;;;;;;;7.53;4.38;;;;;;;14.91;100.00;96958.44;5098918;28;20075;-47
2022/11/02 03:08:35;;;;;;;8.48;4.80;;;;;;;15.64;100.00;96958.66;5098992;28;20087;-43
2022/11/02 03:11:09;;;;;;;7.32;4.38;;;;;;;16.05;100.00;96949.91;5099333;28;20079;-52
2022/11/02 03:13:47;;;;;;;7.45;4.22;;;;;;;16.45;100.00;96943.72;5099560;28;20109;-49
2022/11/02 03:16:28;;;;;;;7.43;4.72;;;;;;;16.05;100.00;96961.38;5098461;28;20080;-45
2022/11/02 03:19:01;;;;;;;11.80;4.80;;;;;;;15.82;100.00;96957.69;5103068;28;20977;-46
2022/11/02 03:21:36;;;;;;;6.03;4.55;;;;;;;15.74;100.00;96965.69;5100211;28;20091;-44
2022/11/02 03:24:08;;;;;;;7.53;4.63;;;;;;;15.17;100.00;96980.47;5100154;28;20756;-45
2022/11/02 03:26:43;;;;;;;6.20;4.18;;;;;;;15.43;100.00;96979.53;5102691;28;20052;-52
2022/11/02 03:29:14;;;;;;;5.60;4.05;;;;;;;15.47;100.00;96980.88;5083074;28;20079;-48
2022/11/02 03:31:46;;;;;;;9.55;4.72;;;;;;;15.53;100.00;96987.38;5103510;28;20086;-47
2022/11/02 03:34:20;;;;;;;10.20;4.72;;;;;;;15.20;100.00;96990.75;5104812;28;20086;-46
2022/11/02 03:36:52;;;;;;;7.40;4.15;;;;;;;15.31;100.00;96994.97;5098793;28;20067;-49
2022/11/02 03:39:24;;;;;;;8.10;4.47;;;;;;;15.34;100.00;96997.28;5097904;28;20593;-44
2022/11/02 03:41:53;;;;;;;6.18;4.32;;;;;;;15.68;100.00;96991.09;5102549;28;20083;-47
2022/11/02 03:44:24;;;;;;;8.02;3.65;;;;;;;15.39;100.00;96992.31;5097488;28;20086;-45
2022/11/02 03:46:58;;;;;;;11.07;4.60;;;;;;;15.62;100.00;96995.22;5092652;28;20079;-45
2022/11/02 03:49:28;;;;;;;6.88;3.78;;;;;;;15.52;100.00;96991.88;5100054;28;20079;-44
2022/11/02 03:51:59;;;;;;;9.85;4.28;;;;;;;15.63;100.00;96994.22;5093174;28;20090;-49
2022/11/02 03:54:37;;;;;;;8.68;4.10;;;;;;;15.41;100.00;96994.81;5094768;28;20526;-43
2022/11/02 03:57:09;;;;;;;11.60;4.60;;;;;;;15.47;100.00;97007.47;5097272;28;20094;-44
2022/11/02 03:59:38;;;;;;;9.60;4.40;;;;;;;15.54;100.00;96997.00;5098547;28;20083;-43
2022/11/02 04:02:10;;;;;;;9.48;4.60;;;;;;;15.80;100.00;97004.91;5097890;28;20486;-51
2022/11/02 04:04:48;;;;;;;10.05;4.32;;;;;;;15.44;100.00;97013.94;5099021;28;20082;-43
2022/11/02 04:07:19;;;;;;;6.28;4.10;;;;;;;15.24;100.00;97012.53;5097630;28;20094;-48
2022/11/02 04:09:48;;;;;;;9.02;4.20;;;;;;;15.48;100.00;97011.78;5095597;28;20083;-43
2022/11/02 04:15:04;;;;;;;9.05;4.47;;;;;;;15.48;100.00;97011.78;5099658;28;20072;-43
2022/11/02 04:20:18;;;;;;;7.65;4.55;;;;;;;15.43;100.00;97017.59;5094499;28;20080;-50
2022/11/02 04:25:32;;;;;;;6.68;4.10;;;;;;;15.50;100.00;97022.25;5097274;28;20075;-51
2022/11/02 04:28:07;;;;;;;6.20;4.15;;;;;;;16.19;100.00;97009.59;5099162;28;20476;-50
2022/11/02 04:30:36;;;;;;;7.57;4.25;;;;;;;16.52;100.00;97011.25;5093790;28;20098;-44
2022/11/02 04:35:51;;;;;;;8.48;3.97;;;;;;;16.55;100.00;97004.75;5095952;28;20420;-51
2022/11/02 04:43:51;;;;;;;8.88;4.65;;;;;;;15.48;100.00;97003.78;5097788;28;20075;-51
2022/11/02 04:46:22;;;;;;;8.32;4.47;;;;;;;15.26;100.00;97005.22;5096455;28;20079;-46
2022/11/02 04:48:51;;;;;;;7.90;4.10;;;;;;;15.05;100.00;96999.50;5094878;28;20540;-46
2022/11/02 04:51:20;;;;;;;13.35;4.65;;;;;;;15.32;100.00;96993.97;5097058;28;20675;-48
2022/11/02 04:53:48;;;;;;;7.90;4.32;;;;;;;14.88;100.00;96982.66;5097335;28;20076;-47
2022/11/02 04:56:17;;;;;;;9.63;4.63;;;;;;;15.21;100.00;96973.00;5091729;28;20554;-45
2022/11/02 04:58:48;;;;;;;8.25;4.25;;;;;;;15.52;100.00;96973.25;5097106;28;20075;-43
2022/11/02 05:01:16;;;;;;;7.63;4.40;;;;;;;14.63;100.00;96973.75;5096604;28;20076;-43
2022/11/02 05:03:48;;;;;;;7.15;4.18;;;;;;;15.07;100.00;96973.59;5100247;28;20071;-46
2022/11/02 05:06:17;;;;;;;8.93;4.13;;;;;;;15.33;100.00;96974.38;5096582;28;20083;-46
2022/11/02 05:08:45;;;;;;;7.70;4.15;;;;;;;15.54;100.00;96983.72;5089137;28;20080;-45
2022/11/02 05:11:14;;;;;;;7.38;4.32;;;;;;;15.57;100.00;96981.56;5095818;28;20087;-46
2022/11/02 05:13:43;;;;;;;8.57;4.45;;;;;;;15.64;100.00;96985.22;5092696;28;20624;-47
2022/11/02 05:16:15;;;;;;;8.52;4.50;;;;;;;15.70;100.00;96988.28;5094919;28;20502;-48
2022/11/02 05:18:44;;;;;;;7.40;3.97;;;;;;;15.69;100.00;96992.78;5095382;28;20517;-48
2022/11/02 05:21:13;;;;;;;6.90;4.18;;;;;;;15.70;100.00;96998.91;5096483;28;20079;-46
2022/11/02 05:23:42;;;;;;;11.63;4.53;;;;;;;15.61;100.00;96995.38;5089733;28;20083;-47
2022/11/02 05:26:27;;;;;;;8.60;4.13;;;;;;;15.70;100.00;96999.75;5099099;28;20071;-43
2022/11/02 05:28:56;;;;;;;6.05;4.00;;;;;;;15.70;100.00;96997.09;5091686;28;20083;-51
2022/11/02 05:31:24;;;;;;;8.00;4.20;;;;;;;15.50;100.00;97004.47;5093847;28;20083;-49
2022/11/02 05:33:52;;;;;;;7.45;4.40;;;;;;;14.69;100.00;97008.47;5094805;28;20087;-48
2022/11/02 05:36:22;;;;;;;10.70;4.57;;;;;;;15.38;100.00;97011.94;5094387;28;20048;-52
2022/11/02 05:38:52;;;;;;;10.80;4.50;;;;;;;15.43;100.00;97012.25;5092098;28;20072;-43
2022/11/02 05:41:21;;;;;;;9.75;5.18;;;;;;;15.43;100.00;97019.41;5099631;28;21421;-48
2022/11/02 05:43:49;;;;;;;10.95;5.00;;;;;;;15.39;100.00;97010.94;5103670;28;20083;-44
2022/11/02 05:46:17;;;;;;;12.60;4.82;;;;;;;15.48;100.00;97002.97;5091941;28;20135;-46
2022/11/02 05:48:46;;;;;;;9.23;4.38;;;;;;;15.34;100.00;97010.56;5096445;28;20086;-50
2022/11/02 05:51:14;;;;;;;8.30;4.60;;;;;;;14.86;100.00;97005.88;5098122;28;20495;-45
2022/11/02 05:53:44;;;;;;;9.00;4.50;;;;;;;15.48;100.00;97009.13;5103993;28;20079;-50
2022/11/02 05:56:13;;;;;;;9.32;4.78;;;;;;;15.73;100.00;97010.06;5101984;28;20596;-46
2022/11/02 05:58:41;;;;;;;8.85;4.90;;;;;;;15.99;100.00;97017.06;5101397;28;20508;-49
2022/11/02 06:01:10;;;;;;;5.65;3.60;;;;;;;16.19;100.00;97004.28;5097532;28;20083;-46
2022/11/02 06:03:39;;;;;;;7.63;4.18;;;;;;;15.88;100.00;97016.38;5101090;28;20078;-46
2022/11/02 06:06:11;;;;;;;8.98;3.88;;;;;;;15.96;100.00;97020.06;5104877;28;20654;-50
2022/11/02 06:08:39;;;;;;;7.47;4.43;;;;;;;15.82;100.00;97021.53;5099510;28;20079;-45
2022/11/02 06:11:11;;;;;;;8.88;4.70;;;;;;;15.98;100.00;97023.41;5097552;28;20075;-51
2022/11/02 06:13:40;;;;;;;6.55;4.40;;;;;;;15.95;100.00;97031.69;5099689;28;20079;-47
2022/11/02 06:16:10;;;;;;;7.18;4.00;;;;;;;15.94;100.00;97032.69;5102561;28;20172;-50
2022/11/02 06:18:39;;;;;;;6.47;4.25;;;;;;;15.95;100.00;97031.69;5095489;28;20079;-48
2022/11/02 06:21:07;;;;;;;9.75;4.00;;;;;;;15.95;100.00;97032.53;5100387;28;20082;-48
2022/11/02 06:23:36;;;;;;;7.65;4.72;;;;;;;15.98;100.00;97042.84;5096960;28;20083;-44
2022/11/02 06:26:05;;;;;;;7.93;4.20;;;;;;;15.90;100.00;97042.84;5101695;28;20079;-45
2022/11/02 06:28:34;;;;;;;8.82;4.00;;;;;;;15.47;100.00;97043.84;5096347;28;20075;-51
2022/11/02 06:31:03;;;;;;;13.10;4.10;;;;;;;16.00;100.00;97046.19;5097108;28;20483;-46
2022/11/02 06:33:31;;;;;;;7.03;4.20;;;;;;;16.03;100.00;97045.81;5083085;28;20071;-48
2022/11/02 06:36:00;;;;;;;7.95;4.13;;;;;;;16.12;100.00;97050.16;5093513;28;20083;-46
2022/11/02 06:38:28;;;;;;;9.63;4.53;;;;;;;16.21;100.00;97048.38;5098948;28;20091;-45
2022/11/02 06:40:57;;;;;;;7.63;3.92;;;;;;;16.30;100.00;97042.03;5099888;28;20182;-44
2022/11/02 06:43:25;;;;;;;6.72;3.90;;;;;;;16.42;100.00;97047.88;5098693;28;20106;-44
2022/11/02 06:45:56;;;;;;;10.02;3.88;;;;;;;16.53;100.00;97052.84;5098214;28;20529;-47
2022/11/02 06:48:24;;;;;;;;;;;;;;;16.68;100.00;97057.50;5098706;28;20090;-48
2022/11/02 06:51:00;;;;;;;7.82;4.00;;;;;;;16.64;100.00;97064.16;5101491;28;19955;-48
2022/11/02 06:53:28;;;;;;;7.13;4.20;;;;;;;16.68;100.00;97068.97;5101291;28;20608;-52
2022/11/02 06:55:58;;;;;;;6.35;4.15;;;;;;;16.86;100.00;97071.47;5101707;28;20078;-48
2022/11/02 06:58:27;;;;;;;7.55;4.45;;;;;;;16.93;100.00;97064.50;5103775;28;20588;-47
2022/11/02 07:00:59;;;;;;;8.10;3.88;;;;;;;16.68;100.00;97070.81;5096390;28;20113;-48
2022/11/02 07:03:27;;;;;;;8.73;4.28;;;;;;;16.69;100.00;97080.44;5094669;28;20092;-48
2022/11/02 07:05:56;;;;;;;7.88;4.45;;;;;;;16.46;100.00;97090.97;5106526;28;20075;-44
2022/11/02 07:08:25;;;;;;;8.95;4.00;;;;;;;17.16;100.00;97085.09;5094755;28;20080;-45
2022/11/02 07:10:53;;;;;;;6.78;4.47;;;;;;;17.22;100.00;97087.91;5106065;28;20213;-44
2022/11/02 07:13:22;;;;;;;10.05;4.43;;;;;;;17.33;100.00;97092.84;5098592;28;20466;-43
2022/11/02 07:15:52;;;;;;;8.15;4.47;;;;;;;17.19;100.00;97090.91;5102306;28;20082;-46
2022/11/02 07:18:22;;;;;;;7.53;4.45;;;;;;;17.63;100.00;97085.09;5099426;28;20529;-45
2022/11/02 07:20:50;;;;;;;7.80;4.60;;;;;;;17.91;100.00;97090.81;5092670;28;20075;-48
2022/11/02 07:23:22;;;;;;;9.77;5.15;;;;;;;17.63;100.00;97086.94;5100841;28;20055;-45
2022/11/02 07:25:51;;;;;;;9.73;5.40;;;;;;;17.73;100.00;97083.06;5099030;28;20083;-44
2022/11/02 07:28:20;;;;;;;9.15;5.50;;;;;;;18.14;100.00;97072.19;5099977;28;20506;-48
2022/11/02 07:30:48;;;;;;;7.90;4.93;;;;;;;18.35;100.00;97074.19;5097748;28;20071;-43
2022/11/02 07:33:17;;;;;;;13.38;5.70;;;;;;;18.29;100.00;97080.25;5097977;28;20506;-46
2022/11/02 07:35:47;;;;;;;9.80;6.03;;;;;;;18.73;100.00;97074.25;5097475;28;20102;-52
2022/11/02 07:38:15;;;;;;;9.13;4.90;;;;;;;18.59;100.00;97072.34;5098437;28;20082;-46
2022/11/02 07:40:43;;;;;;;9.68;5.30;;;;;;;18.67;100.00;97081.09;5096641;28;20082;-51
2022/11/02 07:43:11;;;;;;;15.25;7.18;;;;;;;18.92;100.00;97083.59;5100265;28;20079;-46
2022/11/02 07:45:40;;;;;;;13.10;6.38;;;;;;;18.91;100.00;97090.78;5096133;28;20086;-48
2022/11/02 07:48:08;;;;;;;12.40;4.93;;;;;;;18.93;100.00;97091.44;5100200;28;20090;-45
2022/11/02 07:50:36;;;;;;;10.93;5.30;;;;;;;18.86;100.00;97095.03;5095197;28;20527;-48
2022/11/02 07:53:06;;;;;;;10.02;4.63;;;;;;;19.47;100.00;97090.34;5103185;28;20080;-51
2022/11/02 07:55:35;;;;;;;10.27;4.68;;;;;;;19.92;100.00;97094.69;5101847;28;20083;-47
2022/11/02 07:58:04;;;;;;;8.80;4.47;;;;;;;20.25;100.00;97086.19;5095493;28;20075;-43
2022/11/02 08:00:36;;;;;;;7.40;4.30;;;;;;;20.70;100.00;97083.34;5094053;28;20067;-48
2022/11/02 08:03:05;;;;;;;9.45;5.00;;;;;;;20.21;100.00;97084.91;5095084;28;20075;-44
2022/11/02 08:05:36;;;;;;;12.07;4.70;;;;;;;20.65;100.00;97091.97;5101740;28;20079;-46
2022/11/02 08:08:07;;;;;;;10.35;4.20;;;;;;;20.78;100.00;97101.97;5097454;28;20079;-47
2022/11/02 08:10:36;;;;;;;7.95;4.55;;;;;;;20.24;100.00;97095.25;5097883;28;20079;-47
2022/11/02 08:13:08;;;;;;;8.07;4.70;;;;;;;20.54;100.00;97097.81;5096969;28;20079;-48
2022/11/02 08:15:36;;;;;;;7.75;4.18;;;;;;;20.53;100.00;97097.00;5094493;28;20095;-46
2022/11/02 08:18:07;;;;;;;11.40;4.13;;;;;;;20.18;100.00;97098.69;5100238;28;20075;-47
2022/11/02 08:20:36;;;;;;;8.93;4.65;;;;;;;20.20;100.00;97103.84;5101346;28;20101;-49
2022/11/02 08:23:06;;;;;;;11.77;4.43;;;;;;;19.90;100.00;97112.78;5097890;28;20071;-45
2022/11/02 08:25:35;;;;;;;8.85;4.32;;;;;;;21.26;100.00;97104.81;5097468;28;20083;-43
2022/11/02 08:28:04;;;;;;;8.85;4.55;;;;;;;21.20;100.00;97103.75;5096579;28;20065;-43
2022/11/02 08:30:33;;;;;;;10.65;4.15;;;;;;;21.94;100.00;97094.25;5096779;28;20079;-48
2022/11/02 08:33:03;;;;;;;7.80;3.75;;;;;;;22.10;100.00;97091.22;5097740;28;20090;-44
2022/11/02 08:35:32;;;;;;;8.32;3.10;;;;;;;20.57;100.00;97100.94;5098268;28;20079;-47
2022/11/02 08:38:00;;;;;;;10.90;3.30;;;;;;;20.14;100.00;97105.44;5097989;28;20083;-50
2022/11/02 08:40:31;;;;;;;5.80;3.40;;;;;;;19.91;100.00;97108.25;5096505;28;20083;-48
2022/11/02 08:43:00;;;;;;;10.35;3.38;;;;;;;19.60;100.00;97106.59;5096568;28;20475;-47
2022/11/02 08:45:46;;;;;;;7.70;3.42;;;;;;;19.99;100.00;97108.13;5096380;28;20085;-47
2022/11/02 08:48:34;;;;;;;11.18;3.65;;;;;;;20.27;100.00;97102.09;5097983;28;20103;-45
2022/11/02 08:51:04;;;;;;;8.38;4.07;;;;;;;20.67;100.00;97097.13;5104626;28;20070;-48
2022/11/02 08:53:32;;;;;;;6.95;3.47;;;;;;;20.08;100.00;97104.34;5095536;28;20530;-48
2022/11/02 08:56:02;;;;;;;8.60;3.55;;;;;;;20.87;100.00;97095.44;5094194;28;20095;-47
2022/11/02 08:58:30;;;;;;;6.45;3.13;;;;;;;20.32;100.00;97108.50;5094870;28;20094;-45
2022/11/02 09:00:59;;;;;;;6.20;3.00;;;;;;;20.26;100.00;97114.63;5101902;28;20544;-45
2022/11/02 09:03:27;;;;;;;7.45;3.13;;;;;;;20.48;100.00;97107.44;5096184;28;20128;-52
2022/11/02 09:06:00;;;;;;;8.27;2.88;;;;;;;20.85;100.00;97105.53;5098872;28;20103;-43
2022/11/02 09:08:29;;;;;;;7.15;2.92;;;;;;;19.97;100.00;97104.00;5093054;28;20101;-48
2022/11/02 09:10:59;;;;;;;7.07;2.70;;;;;;;19.53;100.00;97099.50;5093828;28;20458;-47
2022/11/02 09:13:29;;;;;;;8.27;2.88;;;;;;;19.49;100.00;97109.75;5098970;28;20137;-48
2022/11/02 09:15:59;;;;;;;9.93;3.10;;;;;;;19.91;100.00;97101.03;5096258;28;20538;-46
2022/11/02 09:18:27;;;;;;;8.48;2.70;;;;;;;19.68;100.00;97111.91;5095531;28;20082;-46
2022/11/02 09:20:56;;;;;;;5.28;2.63;;;;;;;19.75;100.00;97111.13;5094441;28;20098;-48
2022/11/02 09:23:24;;;;;;;7.72;2.70;;;;;;;19.95;100.00;97108.69;5101954;28;20090;-47
2022/11/02 09:25:53;;;;;;;3.80;2.50;;;;;;;20.10;100.00;97114.88;5101642;28;20087;-46
2022/11/02 09:28:21;;;;;;;5.78;2.30;;;;;;;19.84;100.00;97118.03;5099172;28;20201;-48
2022/11/02 09:30:50;;;;;;;4.90;1.90;;;;;;;19.89;100.00;97116.47;5101653;28;20075;-50
2022/11/02 09:33:19;;;;;;;7.77;2.73;;;;;;;19.56;100.00;97125.88;5101085;28;20083;-49
2022/11/02 09:35:48;;;;;;;6.60;2.40;;;;;;;19.97;100.00;97120.91;5102472;28;20493;-46
2022/11/02 09:38:18;;;;;;;7.73;2.53;;;;;;;19.82;100.00;97128.09;5104802;28;20101;-50
2022/11/02 09:40:50;;;;;;;3.85;2.20;;;;;;;20.02;100.00;97125.69;5101922;28;20072;-51
2022/11/02 09:43:23;;;;;;;4.47;2.20;;;;;;;20.15;100.00;97128.50;5107116;28;20083;-44
2022/11/02 09:46:01;;;;;;;7.97;1.98;;;;;;;19.66;100.00;97132.66;5098532;28;20075;-45
2022/11/02 09:48:32;;;;;;;7.85;2.17;;;;;;;19.46;100.00;97134.19;5099285;28;20071;-46
2022/11/02 09:51:05;;;;;;;8.48;2.17;;;;;;;19.89;100.00;97131.72;5100014;28;20084;-45
2022/11/02 09:53:41;;;;;;;5.55;2.47;;;;;;;20.01;100.00;97143.59;5098715;28;20079;-48
2022/11/02 09:56:10;;;;;;;9.05;2.25;;;;;;;19.92;100.00;97150.06;5100142;28;20767;-46
2022/11/02 09:58:40;;;;;;;8.50;2.40;;;;;;;19.96;100.00;97147.84;5098638;28;20083;-47
2022/11/02 10:01:23;;;;;;;7.97;2.20;;;;;;;20.32;100.00;97140.66;5102207;28;21053;-49
2022/11/02 10:04:20;;;;;;;6.50;1.88;;;;;;;20.38;100.00;97136.41;5100596;28;20509;-50
2022/11/02 10:06:55;;;;;;;4.90;1.60;;;;;;;20.36;100.00;97139.25;5087859;28;20548;-45
2022/11/02 10:09:26;;;;;;;6.10;1.67;;;;;;;20.08;100.00;97135.63;5099548;28;20090;-46
2022/11/02 10:11:59;;;;;;;4.53;1.55;;;;;;;19.97;100.00;97139.63;5106293;28;21756;-48
2022/11/02 10:14:31;;;;;;;8.70;1.77;;;;;;;20.06;100.00;97137.66;5098781;28;20075;-47
2022/11/02 10:17:06;;;;;;;5.97;2.15;;;;;;;20.69;100.00;97132.63;5102003;28;20079;-45
2022/11/02 10:19:37;;;;;;;7.80;2.10;;;;;;;20.74;100.00;97133.69;5100873;28;20083;-48
2022/11/02 10:22:08;;;;;;;4.50;1.70;;;;;;;20.56;100.00;97139.50;5103665;28;20090;-53
2022/11/02 10:24:41;;;;;;;3.92;1.60;;;;;;;20.51;100.00;97141.94;5103815;28;20471;-51
2022/11/02 10:27:15;;;;;;;7.25;1.77;;;;;;;20.19;100.00;97145.84;5102074;28;20540;-48
2022/11/02 10:29:46;;;;;;;8.13;1.90;;;;;;;20.38;100.00;97145.25;5102667;28;20591;-49
2022/11/02 10:32:16;;;;;;;5.13;1.35;;;;;;;20.68;100.00;97138.97;5102266;28;20067;-49
2022/11/02 10:34:46;;;;;;;3.78;1.00;;;;;;;20.42;100.00;97142.22;5097711;28;20079;-49
2022/11/02 10:37:44;;;;;;;5.88;1.58;;;;;;;20.99;100.00;97152.03;5102229;28;20090;-51
2022/11/02 10:40:24;;;;;;;6.80;1.50;;;;;;;20.78;100.00;97139.50;5100144;28;20473;-46
2022/11/02 10:43:03;;;;;;;4.22;1.50;;;;;;;20.85;100.00;97141.22;5099294;28;20079;-50
2022/11/02 10:46:07;;;;;;;5.03;1.48;;;;;;;21.07;100.00;97146.56;5097683;28;20083;-46
2022/11/02 10:48:43;;;;;;;4.45;1.50;;;;;;;20.66;100.00;97133.00;5007271;28;20061;-47
2022/11/02 10:51:12;;;;;;;4.07;1.58;;;;;;;21.23;100.00;97132.03;5088858;28;20526;-45
2022/11/02 10:53:42;;;;;;;5.82;1.40;;;;;;;21.90;100.00;97150.22;5100000;28;20099;-51
2022/11/02 10:56:16;;;;;;;10.60;1.48;;;;;;;21.38;100.00;97151.56;5099409;28;20084;-46
2022/11/02 10:58:49;;;;;;;4.38;1.40;;;;;;;21.35;100.00;97138.53;5099333;28;20152;-47
2022/11/02 11:01:18;;;;;;;3.83;1.17;;;;;;;21.33;100.00;97132.50;5099799;28;20568;-49
2022/11/02 11:03:59;;;;;;;4.97;1.45;;;;;;;21.51;100.00;97140.13;5096370;28;20079;-44
2022/11/02 11:06:30;;;;;;;5.43;1.30;;;;;;;21.51;100.00;97138.25;5101344;28;20079;-50
2022/11/02 11:09:04;;;;;;;5.93;1.38;;;;;;;21.19;97.45;97141.50;5104785;28;20096;-45
2022/11/02 11:11:34;;;;;;;5.78;1.38;;;;;;;21.78;94.27;97122.28;5102871;28;20090;-46
2022/11/02 11:14:04;;;;;;;4.80;1.13;;;;;;;21.41;96.24;97134.25;5101445;28;20083;-48
2022/11/02 11:16:53;;;;;;;;;;;;;;;21.16;90.46;97134.66;5095279;28;20537;-46
2022/11/02 11:19:33;;;;;;;3.15;1.10;;;;;;;21.71;93.05;97137.53;5098593;28;20373;-48
2022/11/02 11:22:24;;;;;;;7.03;1.40;;;;;;;22.19;86.39;97127.63;5103134;28;20063;-45
2022/11/02 11:24:52;;;;;;;6.05;1.33;;;;;;;21.80;87.86;97129.09;5095242;28;20665;-49
2022/11/02 11:27:21;;;;;;;5.97;0.98;;;;;;;22.25;80.49;97123.31;5102399;28;20086;-50
2022/11/02 11:29:52;;;;;;;4.28;0.70;;;;;;;21.17;81.89;97125.59;5099762;28;20094;-46
2022/11/02 11:32:23;;;;;;;3.72;0.80;;;;;;;21.35;73.28;97127.81;5106032;28;20207;-52
2022/11/02 11:35:01;;;;;;;4.97;1.13;;;;;;;21.54;85.07;97118.22;5099420;28;20071;-50
2022/11/02 11:37:30;;;;;;;4.28;1.13;;;;;;;21.30;80.47;97127.53;5093543;28;20087;-44
2022/11/02 11:40:00;;;;;;;8.05;1.35;;;;;;;21.11;80.38;97123.69;5100219;28;20478;-49
2022/11/02 11:42:29;;;;;;;;;;;;;;;20.91;85.75;97133.44;5095949;28;20090;-49
2022/11/02 11:45:00;;;;;;;5.15;1.00;;;;;;;20.83;84.55;97129.03;5101451;28;19971;-50
2022/11/02 11:47:32;;;;;;;4.90;1.10;;;;;;;21.35;92.63;97125.13;5098522;28;20079;-47
2022/11/02 11:50:04;;;;;;;5.28;0.95;;;;;;;21.18;98.11;97121.06;5104413;28;20075;-48
2022/11/02 11:52:45;;;;;;;3.67;1.00;;;;;;;21.11;83.61;97121.00;5099920;28;20460;-50
2022/11/02 11:55:21;;;;;;;3.95;1.02;;;;;;;20.71;89.60;97126.03;5101073;28;20074;-51
2022/11/02 11:58:05;;;;;;;5.65;1.05;;;;;;;21.27;89.42;97118.03;5100873;28;20080;-48
2022/11/02 12:00:34;;;;;;;3.78;1.13;;;;;;;21.42;91.34;97128.69;5099903;28;20541;-46